createdAt,value
2018-02-23T00:00:24.719Z,72.49
2018-02-23T00:02:17.691Z,72.77
2018-02-23T00:03:17.649Z,72.49
2018-02-23T00:05:10.589Z,72.39
2018-02-23T00:06:10.540Z,72.39
2018-02-23T00:08:03.333Z,72.67
2018-02-23T00:09:03.280Z,72.30
2018-02-23T00:10:56.486Z,72.30
2018-02-23T00:11:56.395Z,72.49
2018-02-23T00:13:49.289Z,72.02
2018-02-23T00:14:49.248Z,71.83
2018-02-23T00:16:42.106Z,72.49
2018-02-23T00:17:41.990Z,71.64
2018-02-23T00:19:34.941Z,71.73
2018-02-23T00:20:34.886Z,72.07
2018-02-23T00:22:27.869Z,71.69
2018-02-23T00:23:27.777Z,71.41
2018-02-23T00:25:20.738Z,72.17
2018-02-23T00:26:20.671Z,71.60
2018-02-23T00:28:13.606Z,71.64
2018-02-23T00:29:13.572Z,71.41
2018-02-23T00:31:06.724Z,71.03
2018-02-23T00:32:06.625Z,71.16
2018-02-23T00:33:59.591Z,70.97
2018-02-23T00:34:59.535Z,70.75
2018-02-23T00:36:52.491Z,70.37
2018-02-23T00:37:52.436Z,70.47
2018-02-23T00:39:45.568Z,70.56
2018-02-23T00:40:45.496Z,70.69
2018-02-23T00:42:38.471Z,70.97
2018-02-23T00:43:38.405Z,70.84
2018-02-23T00:45:31.327Z,70.28
2018-02-23T00:46:31.290Z,70.09
2018-02-23T00:48:24.421Z,70.59
2018-02-23T00:49:24.350Z,70.40
2018-02-23T00:51:17.304Z,70.00
2018-02-23T00:52:17.242Z,70.00
2018-02-23T00:54:10.172Z,70.28
2018-02-23T00:55:10.190Z,70.09
2018-02-23T00:57:03.306Z,70.18
2018-02-23T00:58:03.212Z,70.84
2018-02-23T00:59:56.315Z,70.94
2018-02-23T01:00:56.267Z,70.56
2018-02-23T01:02:49.072Z,70.75
2018-02-23T01:03:49.001Z,70.47
2018-02-23T01:05:42.188Z,71.31
2018-02-23T01:06:42.040Z,71.22
2018-02-23T01:08:35.001Z,71.03
2018-02-23T01:09:34.926Z,71.03
2018-02-23T01:11:27.854Z,70.94
2018-02-23T01:12:27.817Z,71.12
2018-02-23T01:14:21.096Z,71.22
2018-02-23T01:15:20.906Z,70.94
2018-02-23T01:17:13.709Z,70.94
2018-02-23T01:18:13.663Z,71.03
2018-02-23T01:20:06.630Z,71.12
2018-02-23T01:21:06.566Z,70.94
2018-02-23T01:22:59.369Z,70.94
2018-02-23T01:23:59.309Z,70.75
2018-02-23T01:25:52.619Z,71.12
2018-02-23T01:26:52.561Z,71.12
2018-02-23T01:28:45.521Z,70.94
2018-02-23T01:29:45.461Z,70.75
2018-02-23T01:31:38.741Z,70.65
2018-02-23T01:32:38.693Z,70.56
2018-02-23T01:34:31.502Z,70.56
2018-02-23T01:35:31.442Z,70.65
2018-02-23T01:37:24.380Z,70.47
2018-02-23T01:38:24.346Z,70.65
2018-02-23T01:40:17.350Z,70.56
2018-02-23T01:41:17.310Z,70.56
2018-02-23T01:43:10.319Z,70.56
2018-02-23T01:44:10.265Z,70.00
2018-02-23T01:46:03.080Z,70.65
2018-02-23T01:47:03.008Z,70.56
2018-02-23T01:48:55.994Z,70.47
2018-02-23T01:49:55.918Z,70.65
2018-02-23T01:51:49.141Z,70.18
2018-02-23T01:52:49.014Z,70.28
2018-02-23T01:54:42.832Z,70.00
2018-02-23T01:55:41.915Z,70.28
2018-02-23T01:57:34.860Z,70.47
2018-02-23T01:58:34.790Z,70.18
2018-02-23T02:00:27.916Z,70.00
2018-02-23T02:01:27.871Z,70.18
2018-02-23T02:03:20.851Z,70.18
2018-02-23T02:04:20.787Z,69.71
2018-02-23T02:06:13.765Z,70.56
2018-02-23T02:07:13.672Z,70.65
2018-02-23T02:09:06.810Z,70.56
2018-02-23T02:10:06.757Z,70.84
2018-02-23T02:11:59.726Z,70.84
2018-02-23T02:12:59.645Z,70.56
2018-02-23T02:14:52.603Z,70.84
2018-02-23T02:15:52.532Z,70.47
2018-02-23T02:17:45.713Z,70.47
2018-02-23T02:18:45.569Z,70.56
2018-02-23T02:20:38.511Z,70.75
2018-02-23T02:21:38.436Z,70.56
2018-02-23T02:23:31.396Z,70.65
2018-02-23T02:24:31.366Z,70.47
2018-02-23T02:26:24.145Z,70.47
2018-02-23T02:27:24.103Z,70.75
2018-02-23T02:29:16.902Z,70.56
2018-02-23T02:30:16.837Z,70.56
2018-02-23T02:32:09.827Z,71.03
2018-02-23T02:33:09.737Z,71.03
2018-02-23T02:35:02.685Z,70.94
2018-02-23T02:36:02.640Z,70.94
2018-02-23T02:37:55.602Z,71.12
2018-02-23T02:38:55.527Z,71.41
2018-02-23T02:40:48.332Z,71.12
2018-02-23T02:41:48.282Z,71.60
2018-02-23T02:43:41.105Z,71.41
2018-02-23T02:44:41.036Z,71.41
2018-02-23T02:46:33.996Z,71.79
2018-02-23T02:47:33.926Z,71.98
2018-02-23T02:49:26.887Z,72.26
2018-02-23T02:50:26.926Z,71.98
2018-02-23T02:52:19.801Z,72.07
2018-02-23T02:53:19.736Z,72.17
2018-02-23T02:55:12.567Z,72.17
2018-02-23T02:56:12.527Z,72.45
2018-02-23T02:58:05.483Z,73.11
2018-02-23T02:59:05.416Z,72.55
2018-02-23T03:00:58.350Z,72.83
2018-02-23T03:01:58.308Z,72.92
2018-02-23T03:03:51.612Z,73.68
2018-02-23T03:04:51.552Z,73.11
2018-02-23T03:06:44.497Z,73.68
2018-02-23T03:07:44.452Z,73.96
2018-02-23T03:09:37.384Z,73.86
2018-02-23T03:10:37.332Z,73.86
2018-02-23T03:12:30.460Z,74.43
2018-02-23T03:13:30.401Z,74.53
2018-02-23T03:15:23.358Z,75.19
2018-02-23T03:16:23.295Z,75.28
2018-02-23T03:18:16.261Z,75.95
2018-02-23T03:19:16.201Z,75.66
2018-02-23T03:21:09.336Z,75.95
2018-02-23T03:22:09.291Z,76.51
2018-02-23T03:24:02.257Z,77.17
2018-02-23T03:25:02.188Z,77.17
2018-02-23T03:26:54.982Z,77.36
2018-02-23T03:27:54.942Z,77.36
2018-02-23T03:29:48.166Z,77.64
2018-02-23T03:30:48.018Z,78.02
2018-02-23T03:32:40.975Z,77.64
2018-02-23T03:33:40.910Z,77.36
2018-02-23T03:35:33.891Z,78.50
2018-02-23T03:36:33.818Z,78.59
2018-02-23T03:38:27.055Z,78.21
2018-02-23T03:39:26.887Z,78.21
2018-02-23T03:41:19.832Z,78.12
2018-02-23T03:42:19.772Z,78.12
2018-02-23T03:44:12.731Z,78.12
2018-02-23T03:45:12.677Z,78.21
2018-02-23T03:47:05.905Z,78.02
2018-02-23T03:48:05.804Z,78.21
2018-02-23T03:49:58.762Z,78.31
2018-02-23T03:50:58.698Z,78.31
2018-02-23T03:52:51.627Z,78.02
2018-02-23T03:53:51.578Z,78.02
2018-02-23T03:55:44.797Z,78.40
2018-02-23T03:56:44.673Z,79.06
2018-02-23T03:58:37.601Z,78.97
2018-02-23T03:59:37.562Z,78.68
2018-02-23T04:01:30.542Z,78.59
2018-02-23T04:02:30.481Z,79.35
2018-02-23T04:04:23.584Z,79.25
2018-02-23T04:05:23.542Z,79.25
2018-02-23T04:07:16.348Z,79.25
2018-02-23T04:08:16.294Z,79.53
2018-02-23T04:10:09.338Z,79.06
2018-02-23T04:11:09.244Z,79.63
2018-02-23T04:13:02.437Z,79.44
2018-02-23T04:14:02.344Z,79.53
2018-02-23T04:15:55.296Z,79.44
2018-02-23T04:16:55.236Z,79.25
2018-02-23T04:18:48.185Z,79.44
2018-02-23T04:19:48.141Z,79.44
2018-02-23T04:21:41.300Z,79.53
2018-02-23T04:22:41.224Z,79.44
2018-02-23T04:24:34.181Z,79.44
2018-02-23T04:25:34.142Z,79.63
2018-02-23T04:27:26.955Z,79.91
2018-02-23T04:28:26.909Z,79.91
2018-02-23T04:30:19.817Z,79.68
2018-02-23T04:31:19.783Z,79.72
2018-02-23T04:33:12.743Z,80.06
2018-02-23T04:34:12.586Z,80.25
2018-02-23T04:36:05.588Z,80.34
2018-02-23T04:37:05.514Z,80.72
2018-02-23T04:38:58.302Z,80.72
2018-02-23T04:39:58.260Z,80.82
2018-02-23T04:41:51.243Z,80.63
2018-02-23T04:42:51.155Z,80.53
2018-02-23T04:44:44.296Z,80.82
2018-02-23T04:45:44.247Z,81.20
2018-02-23T04:47:37.201Z,80.82
2018-02-23T04:48:37.144Z,80.82
2018-02-23T04:50:30.082Z,81.01
2018-02-23T04:51:30.033Z,81.01
2018-02-23T04:53:22.846Z,80.82
2018-02-23T04:54:22.786Z,80.82
2018-02-23T04:56:15.574Z,80.44
2018-02-23T04:57:15.521Z,80.53
2018-02-23T04:59:08.492Z,80.63
2018-02-23T05:00:08.438Z,81.01
2018-02-23T05:02:01.399Z,80.25
2018-02-23T05:03:01.354Z,80.63
2018-02-23T05:04:54.276Z,81.01
2018-02-23T05:05:54.233Z,81.10
2018-02-23T05:07:47.047Z,80.91
2018-02-23T05:08:46.982Z,80.63
2018-02-23T05:10:39.924Z,81.29
2018-02-23T05:11:39.881Z,81.01
2018-02-23T05:13:32.852Z,81.38
2018-02-23T05:14:32.778Z,81.38
2018-02-23T05:16:25.562Z,81.29
2018-02-23T05:17:25.535Z,81.38
2018-02-23T05:19:18.778Z,81.38
2018-02-23T05:20:18.617Z,81.20
2018-02-23T05:22:11.602Z,81.01
2018-02-23T05:23:11.562Z,81.38
2018-02-23T05:25:04.516Z,81.38
2018-02-23T05:26:04.458Z,81.20
2018-02-23T05:27:57.625Z,81.38
2018-02-23T05:28:57.573Z,81.29
2018-02-23T05:30:50.538Z,81.29
2018-02-23T05:31:50.483Z,81.38
2018-02-23T05:33:43.429Z,81.29
2018-02-23T05:34:43.392Z,81.57
2018-02-23T05:36:36.236Z,81.01
2018-02-23T05:37:36.168Z,81.76
2018-02-23T05:39:29.137Z,80.53
2018-02-23T05:40:29.074Z,81.10
2018-02-23T05:42:22.012Z,80.53
2018-02-23T05:43:21.968Z,80.82
2018-02-23T05:45:14.913Z,80.25
2018-02-23T05:46:14.855Z,80.63
2018-02-23T05:48:07.668Z,79.78
2018-02-23T05:49:07.608Z,80.25
2018-02-23T05:51:00.603Z,80.25
2018-02-23T05:52:00.523Z,80.15
2018-02-23T05:53:53.521Z,80.34
2018-02-23T05:54:53.477Z,80.44
2018-02-23T05:56:46.322Z,80.44
2018-02-23T05:57:46.221Z,80.53
2018-02-23T05:59:39.012Z,80.06
2018-02-23T06:00:38.961Z,80.53
2018-02-23T06:02:31.816Z,80.53
2018-02-23T06:03:31.768Z,80.25
2018-02-23T06:05:25.093Z,80.53
2018-02-23T06:06:25.013Z,80.44
2018-02-23T06:08:17.817Z,80.25
2018-02-23T06:09:17.772Z,80.15
2018-02-23T06:11:10.902Z,80.15
2018-02-23T06:12:10.837Z,80.06
2018-02-23T06:14:03.776Z,80.34
2018-02-23T06:15:03.724Z,80.15
2018-02-23T06:16:57.178Z,80.63
2018-02-23T06:17:56.968Z,80.44
2018-02-23T06:19:49.922Z,80.44
2018-02-23T06:20:49.889Z,80.63
2018-02-23T06:22:42.832Z,80.15
2018-02-23T06:23:42.771Z,80.25
2018-02-23T06:25:36.029Z,79.97
2018-02-23T06:26:35.869Z,80.06
2018-02-23T06:28:28.823Z,79.97
2018-02-23T06:29:28.772Z,80.06
2018-02-23T06:31:21.586Z,79.78
2018-02-23T06:32:21.528Z,79.87
2018-02-23T06:34:14.473Z,79.97
2018-02-23T06:35:14.434Z,80.15
2018-02-23T06:37:07.253Z,79.78
2018-02-23T06:38:07.180Z,79.78
2018-02-23T06:40:00.457Z,79.87
2018-02-23T06:41:00.424Z,79.87
2018-02-23T06:42:53.502Z,80.15
2018-02-23T06:43:53.443Z,80.34
2018-02-23T06:45:46.408Z,80.15
2018-02-23T06:46:46.352Z,80.06
2018-02-23T06:48:39.302Z,79.78
2018-02-23T06:49:39.408Z,80.06
2018-02-23T06:51:32.235Z,80.44
2018-02-23T06:52:32.148Z,80.25
2018-02-23T06:54:24.944Z,80.34
2018-02-23T06:55:24.893Z,79.87
2018-02-23T06:57:17.703Z,79.87
2018-02-23T06:58:17.642Z,79.87
2018-02-23T07:00:10.597Z,79.78
2018-02-23T07:01:10.542Z,79.87
2018-02-23T07:03:03.494Z,79.87
2018-02-23T07:04:03.448Z,79.87
2018-02-23T07:05:56.728Z,79.49
2018-02-23T07:06:56.677Z,79.40
2018-02-23T07:08:49.682Z,79.30
2018-02-23T07:09:49.632Z,79.11
2018-02-23T07:11:42.602Z,78.64
2018-02-23T07:12:42.564Z,79.30
2018-02-23T07:14:35.538Z,78.64
2018-02-23T07:15:35.483Z,78.64
2018-02-23T07:17:28.492Z,77.89
2018-02-23T07:18:28.411Z,78.08
2018-02-23T07:20:21.353Z,78.36
2018-02-23T07:21:21.317Z,77.89
2018-02-23T07:23:14.213Z,77.98
2018-02-23T07:24:14.129Z,78.27
2018-02-23T07:26:07.082Z,78.17
2018-02-23T07:27:07.043Z,78.27
2018-02-23T07:28:59.984Z,77.83
2018-02-23T07:29:59.934Z,77.80
2018-02-23T07:31:52.914Z,77.64
2018-02-23T07:32:52.828Z,77.64
2018-02-23T07:34:45.639Z,77.93
2018-02-23T07:35:45.566Z,77.36
2018-02-23T07:37:38.516Z,77.45
2018-02-23T07:38:38.482Z,76.89
2018-02-23T07:40:31.433Z,76.70
2018-02-23T07:41:31.374Z,76.70
2018-02-23T07:43:24.203Z,76.70
2018-02-23T07:44:24.129Z,76.04
2018-02-23T07:46:17.412Z,76.61
2018-02-23T07:47:17.213Z,76.61
2018-02-23T07:49:10.177Z,76.14
2018-02-23T07:50:10.109Z,75.19
2018-02-23T07:52:03.079Z,73.86
2018-02-23T07:53:03.041Z,73.77
2018-02-23T07:54:56.333Z,72.92
2018-02-23T07:55:56.294Z,72.64
2018-02-23T07:57:49.253Z,71.22
2018-02-23T07:58:49.318Z,70.09
2018-02-23T08:00:42.403Z,68.57
2018-02-23T08:01:42.275Z,68.67
2018-02-23T08:03:35.058Z,67.44
2018-02-23T08:04:35.018Z,66.12
2018-02-23T08:06:27.829Z,66.22
2018-02-23T08:07:27.767Z,64.98
2018-02-23T08:09:20.715Z,63.57
2018-02-23T08:10:20.675Z,62.85
2018-02-23T08:12:13.669Z,62.94
2018-02-23T08:13:13.608Z,62.94
2018-02-23T08:15:06.440Z,61.33
2018-02-23T08:16:06.362Z,61.05
2018-02-23T08:17:59.335Z,59.92
2018-02-23T08:18:59.304Z,59.92
2018-02-23T08:20:52.263Z,59.82
2018-02-23T08:21:52.198Z,60.01
2018-02-23T08:23:45.338Z,59.63
2018-02-23T08:24:45.284Z,58.87
2018-02-23T08:26:38.238Z,58.69
2018-02-23T08:27:38.184Z,58.22
2018-02-23T08:29:31.130Z,58.03
2018-02-23T08:30:31.092Z,58.59
2018-02-23T08:32:24.301Z,58.03
2018-02-23T08:33:24.139Z,57.55
2018-02-23T08:35:17.077Z,58.40
2018-02-23T08:36:17.033Z,58.50
2018-02-23T08:38:10.009Z,58.87
2018-02-23T08:39:09.948Z,58.78
2018-02-23T08:41:03.123Z,58.40
2018-02-23T08:42:02.999Z,58.22
2018-02-23T08:43:56.012Z,57.27
2018-02-23T08:44:55.964Z,56.99
2018-02-23T08:46:48.923Z,57.30
2018-02-23T08:47:48.858Z,56.54
2018-02-23T08:49:41.675Z,55.76
2018-02-23T08:50:41.620Z,56.13
2018-02-23T08:52:34.436Z,55.38
2018-02-23T08:53:34.383Z,55.57
2018-02-23T08:55:27.306Z,56.13
2018-02-23T08:56:27.263Z,56.35
2018-02-23T08:58:20.230Z,55.60
2018-02-23T08:59:20.275Z,55.03
2018-02-23T09:01:13.172Z,54.84
2018-02-23T09:02:13.108Z,55.31
2018-02-23T09:04:05.916Z,54.93
2018-02-23T09:05:05.852Z,54.93
2018-02-23T09:06:58.807Z,53.42
2018-02-23T09:07:58.758Z,54.37
2018-02-23T09:09:51.734Z,54.65
2018-02-23T09:10:51.675Z,53.89
2018-02-23T09:12:44.670Z,54.65
2018-02-23T09:13:44.613Z,54.46
2018-02-23T09:15:37.642Z,54.65
2018-02-23T09:16:37.565Z,54.65
2018-02-23T09:18:30.593Z,54.46
2018-02-23T09:19:30.501Z,54.37
2018-02-23T09:21:23.655Z,53.23
2018-02-23T09:22:23.534Z,54.08
2018-02-23T09:24:16.484Z,53.80
2018-02-23T09:25:16.420Z,53.99
2018-02-23T09:27:09.243Z,53.33
2018-02-23T09:28:09.163Z,53.61
2018-02-23T09:30:02.160Z,52.76
2018-02-23T09:31:02.084Z,53.05
2018-02-23T09:32:55.300Z,52.76
2018-02-23T09:33:55.114Z,53.14
2018-02-23T09:35:48.089Z,53.14
2018-02-23T09:36:48.061Z,52.19
2018-02-23T09:38:41.027Z,53.14
2018-02-23T09:39:40.978Z,52.19
2018-02-23T09:41:34.155Z,52.31
2018-02-23T09:42:34.076Z,52.03
2018-02-23T09:44:27.031Z,51.28
2018-02-23T09:45:26.962Z,51.56
2018-02-23T09:47:20.338Z,51.18
2018-02-23T09:48:20.216Z,51.09
2018-02-23T09:50:13.270Z,49.76
2018-02-23T09:51:13.117Z,50.23
2018-02-23T09:53:06.107Z,50.33
2018-02-23T09:54:06.045Z,50.14
2018-02-23T09:55:59.253Z,49.19
2018-02-23T09:56:59.174Z,49.85
2018-02-23T09:58:51.970Z,48.72
2018-02-23T09:59:51.929Z,48.91
2018-02-23T10:01:44.913Z,47.32
2018-02-23T10:02:44.844Z,47.06
2018-02-23T10:04:38.125Z,43.39
2018-02-23T10:05:38.043Z,42.44
2018-02-23T10:07:30.999Z,41.33
2018-02-23T10:08:30.964Z,40.76
2018-02-23T10:10:23.951Z,40.31
2018-02-23T10:11:23.916Z,38.43
2018-02-23T10:13:16.918Z,37.37
2018-02-23T10:14:16.843Z,37.69
2018-02-23T10:16:09.836Z,35.11
2018-02-23T10:17:09.783Z,35.50
2018-02-23T10:19:02.760Z,33.72
2018-02-23T10:20:02.722Z,34.23
2018-02-23T10:21:55.591Z,32.26
2018-02-23T10:22:55.546Z,29.58
2018-02-23T10:24:48.502Z,30.74
2018-02-23T10:25:48.480Z,29.79
2018-02-23T10:27:41.464Z,28.75
2018-02-23T10:28:41.415Z,28.10
2018-02-23T10:30:34.657Z,26.13
2018-02-23T10:31:34.549Z,25.46
2018-02-23T10:33:27.534Z,23.84
2018-02-23T10:34:27.511Z,23.74
2018-02-23T10:36:20.498Z,24.29
2018-02-23T10:37:20.449Z,24.84
2018-02-23T10:39:13.279Z,27.12
2018-02-23T10:40:13.266Z,26.84
2018-02-23T10:42:06.249Z,25.65
2018-02-23T10:43:06.209Z,24.28
2018-02-23T10:44:59.168Z,24.95
2018-02-23T10:45:59.144Z,25.57
2018-02-23T10:47:52.330Z,27.79
2018-02-23T10:48:52.236Z,27.15
2018-02-23T10:50:45.228Z,26.92
2018-02-23T10:51:45.267Z,27.34
2018-02-23T10:53:38.190Z,24.49
2018-02-23T10:54:38.150Z,24.09
2018-02-23T10:56:30.979Z,25.12
2018-02-23T10:57:30.940Z,24.97
2018-02-23T10:59:23.936Z,23.58
2018-02-23T11:00:23.890Z,22.54
2018-02-23T11:02:16.896Z,20.52
2018-02-23T11:03:16.845Z,21.26
2018-02-23T11:05:10.080Z,22.88
2018-02-23T11:06:09.960Z,22.97
2018-02-23T11:08:02.971Z,22.96
2018-02-23T11:09:02.909Z,23.42
2018-02-23T11:10:55.921Z,26.31
2018-02-23T11:11:55.877Z,28.71
2018-02-23T11:13:48.857Z,27.14
2018-02-23T11:14:48.810Z,26.21
2018-02-23T11:16:41.836Z,22.78
2018-02-23T11:17:41.787Z,22.78
2018-02-23T11:19:34.806Z,22.60
2018-02-23T11:20:34.750Z,21.77
2018-02-23T11:22:27.564Z,20.54
2018-02-23T11:23:27.544Z,19.95
2018-02-23T11:25:20.539Z,19.37
2018-02-23T11:26:20.493Z,20.23
2018-02-23T11:28:13.473Z,19.56
2018-02-23T11:29:13.444Z,20.06
2018-02-23T11:31:06.653Z,19.65
2018-02-23T11:32:06.586Z,19.07
2018-02-23T11:33:59.625Z,20.62
2018-02-23T11:34:59.675Z,19.20
2018-02-23T11:36:52.875Z,21.16
2018-02-23T11:37:52.829Z,21.48
2018-02-23T11:39:45.790Z,19.57
2018-02-23T11:40:45.758Z,19.15
2018-02-23T11:42:38.747Z,21.62
2018-02-23T11:43:38.701Z,22.10
2018-02-23T11:45:31.627Z,21.36
2018-02-23T11:46:31.521Z,20.97
2018-02-23T11:48:24.522Z,22.48
2018-02-23T11:49:24.472Z,22.50
2018-02-23T11:51:17.453Z,22.22
2018-02-23T11:52:17.428Z,21.42
2018-02-23T11:54:10.586Z,22.68
2018-02-23T11:55:10.532Z,21.64
2018-02-23T11:57:03.531Z,20.43
2018-02-23T11:58:03.480Z,20.10
2018-02-23T11:59:56.455Z,24.81
2018-02-23T12:00:56.433Z,25.76
2018-02-23T12:02:49.275Z,25.61
2018-02-23T12:03:49.219Z,24.93
2018-02-23T12:05:42.197Z,26.28
2018-02-23T12:06:42.164Z,24.28
2018-02-23T12:08:35.151Z,25.70
2018-02-23T12:09:35.111Z,25.61
2018-02-23T12:11:28.270Z,24.91
2018-02-23T12:12:28.228Z,25.70
2018-02-23T12:14:21.376Z,25.60
2018-02-23T12:15:21.345Z,25.75
2018-02-23T12:17:14.469Z,28.57
2018-02-23T12:18:14.431Z,29.33
2018-02-23T12:20:07.481Z,29.35
2018-02-23T12:21:07.416Z,29.27
2018-02-23T12:23:00.424Z,28.93
2018-02-23T12:24:00.370Z,26.58
2018-02-23T12:25:53.409Z,23.86
2018-02-23T12:26:53.233Z,26.21
2018-02-23T12:28:46.227Z,27.65
2018-02-23T12:29:47.310Z,28.31
2018-02-23T12:31:39.160Z,27.88
2018-02-23T12:32:39.126Z,26.96
2018-02-23T12:34:31.957Z,23.92
2018-02-23T12:35:31.918Z,22.94
2018-02-23T12:37:24.885Z,24.22
2018-02-23T12:38:24.715Z,22.99
2018-02-23T12:40:17.696Z,22.41
2018-02-23T12:41:17.667Z,22.05
2018-02-23T12:43:10.617Z,20.01
2018-02-23T12:44:10.606Z,21.39
2018-02-23T12:46:03.523Z,26.43
2018-02-23T12:47:03.469Z,26.06
2018-02-23T12:48:56.337Z,26.43
2018-02-23T12:49:56.272Z,26.62
2018-02-23T12:51:49.265Z,26.01
2018-02-23T12:52:49.942Z,24.07
2018-02-23T12:54:42.178Z,25.13
2018-02-23T12:55:42.143Z,25.07
2018-02-23T12:57:35.052Z,23.69
2018-02-23T12:58:34.993Z,24.26
2018-02-23T13:00:27.979Z,25.13
2018-02-23T13:01:27.912Z,24.30
2018-02-23T13:03:20.870Z,22.86
2018-02-23T13:04:20.944Z,23.44
2018-02-23T13:06:14.046Z,22.30
2018-02-23T13:07:13.986Z,21.83
2018-02-23T13:09:06.790Z,23.78
2018-02-23T13:10:06.766Z,25.49
2018-02-23T13:11:59.611Z,25.81
2018-02-23T13:12:59.541Z,24.93
2018-02-23T13:14:52.496Z,25.52
2018-02-23T13:15:52.485Z,25.70
2018-02-23T13:17:45.392Z,26.32
2018-02-23T13:18:45.320Z,27.28
2018-02-23T13:20:38.308Z,26.64
2018-02-23T13:21:38.265Z,26.74
2018-02-23T13:23:31.220Z,26.72
2018-02-23T13:24:31.206Z,27.94
2018-02-23T13:26:24.005Z,29.35
2018-02-23T13:27:23.969Z,30.20
2018-02-23T13:29:16.775Z,30.28
2018-02-23T13:30:16.739Z,31.63
2018-02-23T13:32:09.726Z,30.77
2018-02-23T13:33:09.660Z,30.38
2018-02-23T13:35:02.639Z,31.34
2018-02-23T13:36:02.595Z,31.44
2018-02-23T13:37:55.600Z,30.68
2018-02-23T13:38:55.558Z,30.55
2018-02-23T13:40:48.531Z,31.98
2018-02-23T13:41:48.482Z,32.54
2018-02-23T13:43:41.492Z,32.26
2018-02-23T13:44:41.406Z,32.54
2018-02-23T13:46:34.218Z,32.83
2018-02-23T13:47:34.186Z,32.65
2018-02-23T13:49:27.376Z,31.99
2018-02-23T13:50:27.285Z,31.80
2018-02-23T13:52:20.258Z,31.13
2018-02-23T13:53:20.223Z,31.63
2018-02-23T13:55:13.215Z,31.55
2018-02-23T13:56:13.134Z,29.75
2018-02-23T13:58:05.966Z,28.62
2018-02-23T13:59:05.905Z,27.65
2018-02-23T14:00:58.883Z,29.44
2018-02-23T14:01:58.851Z,30.22
2018-02-23T14:03:51.851Z,29.64
2018-02-23T14:04:51.782Z,29.06
2018-02-23T14:06:44.737Z,29.47
2018-02-23T14:07:44.691Z,28.64
2018-02-23T14:09:37.651Z,27.60
2018-02-23T14:10:37.482Z,26.84
2018-02-23T14:12:30.451Z,26.89
2018-02-23T14:13:30.434Z,27.84
2018-02-23T14:15:23.526Z,28.51
2018-02-23T14:16:23.470Z,28.88
2018-02-23T14:18:16.327Z,28.90
2018-02-23T14:19:16.318Z,27.86
2018-02-23T14:21:09.274Z,27.84
2018-02-23T14:22:09.237Z,27.84
2018-02-23T14:24:02.188Z,28.31
2018-02-23T14:25:02.151Z,28.51
2018-02-23T14:26:55.457Z,29.08
2018-02-23T14:27:55.277Z,29.17
2018-02-23T14:29:48.127Z,27.76
2018-02-23T14:30:48.055Z,27.94
2018-02-23T14:32:41.027Z,28.70
2018-02-23T14:33:41.001Z,29.17
2018-02-23T14:35:34.286Z,29.66
2018-02-23T14:36:34.122Z,28.79
2018-02-23T14:38:26.946Z,29.55
2018-02-23T14:39:26.907Z,28.89
2018-02-23T14:41:20.052Z,29.00
2018-02-23T14:42:19.996Z,27.67
2018-02-23T14:44:12.824Z,27.78
2018-02-23T14:45:12.780Z,26.64
2018-02-23T14:47:05.677Z,26.64
2018-02-23T14:48:05.552Z,26.74
2018-02-23T14:49:58.527Z,25.96
2018-02-23T14:50:58.486Z,26.70
2018-02-23T14:52:52.309Z,29.63
2018-02-23T14:53:51.443Z,29.92
2018-02-23T14:55:44.653Z,29.17
2018-02-23T14:56:44.572Z,28.97
2018-02-23T14:58:37.520Z,29.28
2018-02-23T14:59:37.503Z,28.98
2018-02-23T15:01:30.483Z,29.74
2018-02-23T15:02:30.436Z,29.66
2018-02-23T15:04:23.413Z,27.95
2018-02-23T15:05:23.278Z,27.97
2018-02-23T15:07:16.272Z,26.72
2018-02-23T15:08:16.196Z,28.05
2018-02-23T15:10:09.253Z,28.34
2018-02-23T15:11:09.223Z,27.68
2018-02-23T15:13:02.164Z,26.90
2018-02-23T15:14:02.082Z,27.08
2018-02-23T15:15:55.068Z,28.67
2018-02-23T15:16:55.023Z,29.14
2018-02-23T15:18:47.998Z,29.93
2018-02-23T15:19:47.951Z,29.16
2018-02-23T15:21:41.108Z,29.16
2018-02-23T15:22:41.030Z,29.63
2018-02-23T15:24:34.007Z,29.52
2018-02-23T15:25:33.962Z,30.09
2018-02-23T15:27:26.757Z,30.74
2018-02-23T15:28:26.715Z,31.69
2018-02-23T15:30:19.716Z,31.69
2018-02-23T15:31:19.653Z,31.80
2018-02-23T15:33:12.492Z,31.42
2018-02-23T15:34:12.421Z,30.93
2018-02-23T15:36:05.397Z,31.96
2018-02-23T15:37:05.352Z,32.71
2018-02-23T15:38:58.327Z,32.64
2018-02-23T15:39:58.267Z,32.26
2018-02-23T15:41:51.421Z,31.60
2018-02-23T15:42:51.371Z,31.77
2018-02-23T15:44:44.354Z,31.96
2018-02-23T15:45:44.308Z,32.53
2018-02-23T15:47:37.264Z,32.71
2018-02-23T15:48:37.253Z,32.53
2018-02-23T15:50:30.412Z,32.53
2018-02-23T15:51:30.356Z,32.81
2018-02-23T15:53:23.310Z,33.00
2018-02-23T15:54:23.272Z,32.62
2018-02-23T15:56:16.250Z,32.81
2018-02-23T15:57:16.191Z,33.29
2018-02-23T15:59:08.984Z,33.19
2018-02-23T16:00:08.956Z,32.91
2018-02-23T16:02:01.920Z,33.86
2018-02-23T16:03:01.860Z,33.78
2018-02-23T16:04:54.851Z,33.67
2018-02-23T16:05:54.777Z,33.86
2018-02-23T16:07:47.739Z,33.38
2018-02-23T16:08:47.728Z,33.67
2018-02-23T16:10:40.508Z,33.95
2018-02-23T16:11:40.464Z,34.52
2018-02-23T16:13:33.408Z,33.86
2018-02-23T16:14:33.417Z,33.67
2018-02-23T16:16:26.812Z,33.86
2018-02-23T16:17:26.127Z,34.05
2018-02-23T16:19:19.101Z,34.42
2018-02-23T16:20:19.047Z,33.57
2018-02-23T16:22:12.232Z,33.65
2018-02-23T16:23:12.145Z,34.12
2018-02-23T16:25:05.259Z,34.33
2018-02-23T16:26:05.199Z,33.57
2018-02-23T16:27:58.223Z,34.23
2018-02-23T16:28:58.158Z,33.94
2018-02-23T16:30:51.173Z,33.94
2018-02-23T16:31:51.102Z,33.75
2018-02-23T16:33:43.928Z,33.65
2018-02-23T16:34:43.913Z,34.59
2018-02-23T16:36:36.874Z,33.84
2018-02-23T16:44:58.479Z,35.24
2018-02-23T16:45:58.420Z,35.43
2018-02-23T16:47:51.395Z,35.34
2018-02-23T16:48:51.329Z,35.62
2018-02-23T16:50:44.133Z,36.10
2018-02-23T16:51:44.094Z,36.19
2018-02-23T16:53:36.978Z,36.66
2018-02-23T16:54:36.930Z,36.66
2018-02-23T16:56:29.704Z,36.95
2018-02-23T16:57:29.611Z,37.14
2018-02-23T16:59:22.567Z,37.42
2018-02-23T17:00:22.537Z,37.80
2018-02-23T17:02:15.554Z,37.80
2018-02-23T17:03:15.510Z,37.71
2018-02-23T17:05:08.388Z,37.61
2018-02-23T17:06:08.322Z,37.99
2018-02-23T17:08:01.300Z,38.37
2018-02-23T17:09:01.247Z,38.09
2018-02-23T17:10:54.202Z,38.16
2018-02-23T17:11:54.243Z,38.45
2018-02-23T17:13:46.973Z,38.54
2018-02-23T17:14:46.898Z,39.01
2018-02-23T17:16:40.059Z,38.82
2018-02-23T17:17:39.993Z,39.20
2018-02-23T17:19:32.964Z,39.01
2018-02-23T17:20:32.898Z,39.01
2018-02-23T17:22:25.862Z,39.58
2018-02-23T17:23:25.815Z,40.25
2018-02-23T17:25:18.659Z,40.34
2018-02-23T17:26:18.618Z,40.06
2018-02-23T17:28:11.603Z,41.28
2018-02-23T17:29:11.377Z,41.19
2018-02-23T17:31:04.314Z,42.23
2018-02-23T17:32:04.302Z,42.14
2018-02-23T17:33:57.283Z,42.23
2018-02-23T17:34:57.195Z,42.14
2018-02-23T17:36:50.340Z,42.33
2018-02-23T17:37:50.314Z,42.14
2018-02-23T17:39:43.264Z,42.80
2018-02-23T17:40:43.217Z,42.90
2018-02-23T17:42:36.184Z,42.59
2018-02-23T17:43:36.140Z,42.88
2018-02-23T17:45:28.972Z,42.88
2018-02-23T17:46:28.922Z,42.88
2018-02-23T17:48:21.873Z,43.63
2018-02-23T17:49:21.998Z,43.73
2018-02-23T17:51:14.821Z,43.91
2018-02-23T17:52:14.718Z,43.54
2018-02-23T17:54:07.560Z,44.58
2018-02-23T17:55:08.537Z,44.29
2018-02-23T17:57:00.626Z,44.39
2018-02-23T17:58:00.538Z,44.39
2018-02-23T17:59:53.504Z,44.48
2018-02-23T18:00:53.459Z,44.29
2018-02-23T18:02:46.448Z,44.20
2018-02-23T18:03:46.364Z,44.10
2018-02-23T18:05:39.534Z,44.01
2018-02-23T18:06:39.448Z,43.91
2018-02-23T18:08:32.411Z,43.73
2018-02-23T18:09:32.352Z,43.73
2018-02-23T18:11:25.313Z,43.54
2018-02-23T18:12:25.256Z,44.01
2018-02-23T18:14:18.426Z,43.35
2018-02-23T18:15:18.348Z,43.91
2018-02-23T18:17:11.329Z,43.91
2018-02-23T18:18:11.245Z,43.91
2018-02-23T18:20:04.202Z,43.82
2018-02-23T18:21:04.149Z,43.73
2018-02-23T18:22:57.457Z,44.01
2018-02-23T18:23:57.403Z,44.20
2018-02-23T18:25:50.379Z,44.29
2018-02-23T18:26:50.287Z,43.80
2018-02-23T18:28:43.475Z,44.39
2018-02-23T18:29:43.439Z,44.39
2018-02-23T18:31:36.378Z,44.09
2018-02-23T18:32:36.319Z,44.39
2018-02-23T18:34:29.295Z,44.18
2018-02-23T18:35:29.259Z,44.01
2018-02-23T18:37:22.093Z,43.99
2018-02-23T18:38:22.005Z,44.09
2018-02-23T18:40:14.788Z,43.99